Taylor, Idaho
Current Conditions -  °F | °C
As of 9:35 AM on Saturday 20 Dec 2014 (Local Time) from KIDA Reporting Station
Light Snow Light Snow  
Wind Chill: 28°   Ceiling: 800
Heat Index: 34°   Visibility: 1mi
Dew Point: 32°   Wind: 7mph
Humidity: 92%   Direction: 230°SW
Pressure: 30.06"   Gusts: NA
Location:  43.498°N, 111.73°W
Report Text: KIDA 201635Z 23006KT 1SM R20/5000VP6000FT -SN BR BKN008 BKN018 OVC027 01/00 A3006 RMK AO2 P0000 T00110000
Loading
Personal Weather Stations






























Interactive Weather Map New forecast layout! Learn more

10-Day Weather Forecast

Advertisements
Track Severe Weather on mobile